createdAt,value
2023-05-04T00:00:15.689Z,7.80
2023-05-04T00:04:17.801Z,7.70
2023-05-04T00:08:19.659Z,7.80
2023-05-04T00:12:21.613Z,8.00
2023-05-04T00:16:23.621Z,7.90
2023-05-04T00:20:25.694Z,7.90
2023-05-04T00:24:28.524Z,7.60
2023-05-04T00:28:30.643Z,7.60
2023-05-04T00:32:32.892Z,7.70
2023-05-04T00:36:35.424Z,7.90
2023-05-04T00:40:37.324Z,7.80
2023-05-04T00:44:41.527Z,7.70
2023-05-04T00:48:46.954Z,7.70
2023-05-04T00:52:49.318Z,7.90
2023-05-04T00:56:51.985Z,7.70
2023-05-04T01:00:54.025Z,7.70
2023-05-04T01:04:56.362Z,7.60
2023-05-04T01:09:04.370Z,7.70
2023-05-04T01:13:12.997Z,7.60
2023-05-04T01:17:16.274Z,7.60
2023-05-04T01:21:18.284Z,7.20
2023-05-04T01:25:20.517Z,7.30
2023-05-04T01:29:31.776Z,7.20
2023-05-04T01:33:34.462Z,7.40
2023-05-04T01:37:36.490Z,7.20
2023-05-04T01:41:38.502Z,6.90
2023-05-04T01:45:40.553Z,6.80
2023-05-04T01:49:42.501Z,6.70
2023-05-04T01:53:44.570Z,6.50
2023-05-04T01:57:46.534Z,6.60
2023-05-04T02:01:48.555Z,6.80
2023-05-04T02:05:50.698Z,6.80
2023-05-04T02:09:52.495Z,6.80
2023-05-04T02:13:54.517Z,6.90
2023-05-04T02:17:56.760Z,6.80
2023-05-04T02:21:58.563Z,6.90
2023-05-04T02:26:00.782Z,6.90
2023-05-04T02:30:04.545Z,6.90
2023-05-04T02:34:06.824Z,6.70
2023-05-04T02:38:08.869Z,6.70
2023-05-04T02:42:10.965Z,6.60
2023-05-04T02:46:13.116Z,5.80
2023-05-04T02:50:14.997Z,6.10
2023-05-04T02:54:16.921Z,6.30
2023-05-04T02:58:18.914Z,6.30
2023-05-04T03:02:20.985Z,6.50
2023-05-04T03:06:23.169Z,6.50
2023-05-04T03:10:24.939Z,6.30
2023-05-04T03:14:26.980Z,6.00
2023-05-04T03:18:28.991Z,5.80
2023-05-04T03:22:31.080Z,6.00
2023-05-04T03:26:33.371Z,6.10
2023-05-04T03:30:36.320Z,6.20
2023-05-04T03:34:39.030Z,6.30
2023-05-04T03:38:42.201Z,6.20
2023-05-04T03:42:44.695Z,6.20
2023-05-04T03:46:46.859Z,6.20
2023-05-04T03:50:48.752Z,6.10
2023-05-04T03:54:50.587Z,6.00
2023-05-04T03:58:52.487Z,5.90
2023-05-04T04:02:59.681Z,6.00
2023-05-04T04:07:02.008Z,6.00
2023-05-04T04:11:05.847Z,6.00
2023-05-04T04:15:08.153Z,6.00
2023-05-04T04:19:10.438Z,5.50
2023-05-04T04:23:12.340Z,4.80
2023-05-04T04:27:15.333Z,5.10
2023-05-04T04:31:20.922Z,5.20
2023-05-04T04:35:27.468Z,5.50
2023-05-04T04:39:29.736Z,5.20
2023-05-04T04:43:33.650Z,5.30
2023-05-04T04:47:36.157Z,5.60
2023-05-04T04:51:38.451Z,5.90
2023-05-04T04:55:41.817Z,6.00
2023-05-04T04:59:43.874Z,6.30
2023-05-04T05:03:46.173Z,6.00
2023-05-04T05:07:48.078Z,6.10
2023-05-04T05:11:50.110Z,6.20
2023-05-04T05:15:52.047Z,6.30
2023-05-04T05:19:54.038Z,6.50
2023-05-04T05:23:56.113Z,6.70
2023-05-04T05:27:58.252Z,6.40
2023-05-04T05:32:00.283Z,6.10
2023-05-04T05:36:02.428Z,6.40
2023-05-04T05:40:08.088Z,6.60
2023-05-04T05:44:11.688Z,6.10
2023-05-04T05:48:15.076Z,6.30
2023-05-04T05:52:17.782Z,6.70
2023-05-04T05:56:19.568Z,7.30
2023-05-04T06:00:21.484Z,7.80
2023-05-04T06:04:23.374Z,8.20
2023-05-04T06:08:25.604Z,8.50
2023-05-04T06:12:27.725Z,8.60
2023-05-04T06:16:30.061Z,8.70
2023-05-04T06:37:43.225Z,8.80
2023-05-04T06:41:45.523Z,9.30
2023-05-04T06:45:47.715Z,9.60
2023-05-04T06:49:49.501Z,9.80
2023-05-04T06:53:51.313Z,10.10
2023-05-04T06:57:53.148Z,10.00
2023-05-04T07:01:55.221Z,9.80
2023-05-04T07:05:57.030Z,9.60
2023-05-04T07:09:59.031Z,10.10
2023-05-04T07:14:01.104Z,10.20
2023-05-04T07:18:03.327Z,10.30
2023-05-04T07:22:05.515Z,10.10
2023-05-04T07:26:08.315Z,10.10
2023-05-04T07:30:10.418Z,10.10
2023-05-04T07:34:12.517Z,10.50
2023-05-04T07:38:14.879Z,10.70
2023-05-04T07:42:17.049Z,10.80
2023-05-04T07:46:20.720Z,10.90
2023-05-04T07:50:22.769Z,11.00
2023-05-04T07:54:24.852Z,11.00
2023-05-04T07:58:26.940Z,10.80
2023-05-04T08:02:28.782Z,11.20
2023-05-04T08:06:30.818Z,11.30
2023-05-04T08:10:37.004Z,11.40
2023-05-04T08:14:40.529Z,11.40
2023-05-04T08:18:43.429Z,11.40
2023-05-04T08:22:45.660Z,11.40
2023-05-04T08:26:59.778Z,11.40
2023-05-04T08:31:06.719Z,11.90
2023-05-04T08:35:09.131Z,11.80
2023-05-04T08:39:12.055Z,11.20
2023-05-04T08:43:14.215Z,11.60
2023-05-04T08:47:16.455Z,11.80
2023-05-04T08:51:19.995Z,11.60
2023-05-04T08:55:22.279Z,11.90
2023-05-04T08:59:25.431Z,11.80
2023-05-04T09:03:28.419Z,12.20
2023-05-04T09:07:30.329Z,12.10
2023-05-04T09:11:32.320Z,12.30
2023-05-04T09:15:34.423Z,12.50
2023-05-04T09:19:36.855Z,11.80
2023-05-04T09:23:49.661Z,12.10
2023-05-04T09:27:54.881Z,12.70
2023-05-04T09:31:57.030Z,13.10
2023-05-04T09:36:11.966Z,13.30
2023-05-04T09:40:14.881Z,13.00
2023-05-04T09:44:21.294Z,13.10
2023-05-04T09:48:31.009Z,12.90
2023-05-04T09:52:33.530Z,13.40
2023-05-04T09:56:52.356Z,13.00
2023-05-04T10:00:54.420Z,13.10
2023-05-04T10:04:58.485Z,13.40
2023-05-04T10:09:00.738Z,13.60
2023-05-04T10:13:02.532Z,12.40
2023-05-04T10:17:16.749Z,12.70
2023-05-04T10:21:50.166Z,13.60
2023-05-04T10:25:58.051Z,13.60
2023-05-04T10:30:01.802Z,13.20
2023-05-04T10:34:03.903Z,13.60
2023-05-04T10:38:06.434Z,13.90
2023-05-04T10:42:08.889Z,13.80
2023-05-04T10:46:18.770Z,14.10
2023-05-04T10:50:21.097Z,14.20
2023-05-04T10:54:23.031Z,13.50
2023-05-04T10:58:30.681Z,13.60
2023-05-04T11:02:35.197Z,14.10
2023-05-04T11:06:38.356Z,14.60
2023-05-04T11:10:40.792Z,14.80
2023-05-04T11:14:43.459Z,14.70
2023-05-04T11:18:45.556Z,15.20
2023-05-04T11:22:48.487Z,15.10
2023-05-04T11:26:50.440Z,14.40
2023-05-04T11:34:55.160Z,14.60
2023-05-04T11:38:57.676Z,14.80
2023-05-04T11:43:00.632Z,15.10
2023-05-04T11:47:03.150Z,15.20
2023-05-04T11:51:06.565Z,15.50
2023-05-04T11:55:10.781Z,15.50
2023-05-04T11:59:12.794Z,15.80
2023-05-04T12:03:27.982Z,15.80
2023-05-04T12:07:37.687Z,15.80
2023-05-04T12:11:40.680Z,15.70
2023-05-04T12:15:42.534Z,15.80
2023-05-04T12:20:02.403Z,16.10
2023-05-04T12:24:05.895Z,16.20
2023-05-04T12:28:08.122Z,15.50
2023-05-04T12:32:10.333Z,15.80
2023-05-04T12:36:12.530Z,16.00
2023-05-04T12:40:27.682Z,16.40
2023-05-04T12:44:31.003Z,15.90
2023-05-04T12:48:33.169Z,16.00
2023-05-04T12:52:35.363Z,16.20
2023-05-04T12:56:37.668Z,16.70
2023-05-04T13:00:40.213Z,16.70
2023-05-04T13:04:42.108Z,16.30
2023-05-04T13:08:44.434Z,16.70
2023-05-04T13:12:47.343Z,16.90
2023-05-04T13:16:50.984Z,16.90
2023-05-04T13:20:56.677Z,17.10
2023-05-04T13:24:59.004Z,16.70
2023-05-04T13:29:03.439Z,16.90
2023-05-04T13:33:10.465Z,17.10
2023-05-04T13:37:23.609Z,17.50
2023-05-04T13:41:26.782Z,17.10
2023-05-04T13:45:28.968Z,17.40
2023-05-04T13:49:30.878Z,17.40
2023-05-04T13:53:32.871Z,17.60
2023-05-04T13:57:34.977Z,16.80
2023-05-04T14:01:36.899Z,16.90
2023-05-04T14:05:38.811Z,17.40
2023-05-04T14:09:40.641Z,16.90
2023-05-04T14:13:42.634Z,17.00
2023-05-04T14:17:44.519Z,17.20
2023-05-04T14:21:47.031Z,17.20
2023-05-04T14:25:53.499Z,17.40
2023-05-04T14:29:55.499Z,17.30
2023-05-04T14:33:57.572Z,17.30
2023-05-04T14:37:59.813Z,17.20
2023-05-04T14:42:02.752Z,17.40
2023-05-04T14:46:04.886Z,17.60
2023-05-04T14:50:07.393Z,17.50
2023-05-04T14:54:09.896Z,17.00
2023-05-04T14:58:12.304Z,17.10
2023-05-04T15:02:14.173Z,17.50
2023-05-04T15:06:15.992Z,17.10
2023-05-04T15:10:18.177Z,17.00
2023-05-04T15:14:21.036Z,17.50
2023-05-04T15:18:24.033Z,17.40
2023-05-04T15:22:27.857Z,17.90
2023-05-04T15:26:31.060Z,17.70
2023-05-04T15:30:33.300Z,17.80
2023-05-04T15:34:35.318Z,17.90
2023-05-04T15:38:37.416Z,17.90
2023-05-04T15:42:39.452Z,17.40
2023-05-04T15:46:41.477Z,17.40
2023-05-04T15:50:43.349Z,18.00
2023-05-04T15:54:47.326Z,18.10
2023-05-04T15:58:49.267Z,18.10
2023-05-04T16:02:51.266Z,17.90
2023-05-04T16:06:53.387Z,17.70
2023-05-04T16:10:57.272Z,17.60
2023-05-04T16:14:59.141Z,17.70
2023-05-04T16:19:01.329Z,17.80
2023-05-04T16:23:03.092Z,17.70
2023-05-04T16:27:05.049Z,17.90
2023-05-04T16:31:09.589Z,17.90
2023-05-04T16:35:13.205Z,17.90
2023-05-04T16:39:16.481Z,17.80
2023-05-04T16:43:18.538Z,17.60
2023-05-04T16:47:20.553Z,17.70
2023-05-04T16:51:22.600Z,17.70
2023-05-04T16:55:26.879Z,17.60
2023-05-04T16:59:29.372Z,17.70
2023-05-04T17:03:32.771Z,17.40
2023-05-04T17:07:34.830Z,17.30
2023-05-04T17:11:36.908Z,17.60
2023-05-04T17:15:39.025Z,17.70
2023-05-04T17:19:41.289Z,17.70
2023-05-04T17:23:43.149Z,17.40
2023-05-04T17:27:45.122Z,17.10
2023-05-04T17:31:47.306Z,16.30
2023-05-04T17:35:49.834Z,16.40
2023-05-04T17:39:52.010Z,16.90
2023-05-04T17:43:55.549Z,16.70
2023-05-04T17:47:57.611Z,16.50
2023-05-04T17:52:01.554Z,16.50
2023-05-04T17:56:03.854Z,16.70
2023-05-04T18:00:07.460Z,16.90
2023-05-04T18:04:09.983Z,16.90
2023-05-04T18:08:12.768Z,16.50
2023-05-04T18:12:14.933Z,16.70
2023-05-04T18:16:17.704Z,16.20
2023-05-04T18:20:19.694Z,16.30
2023-05-04T18:24:21.773Z,16.40
2023-05-04T18:28:23.933Z,16.40
2023-05-04T18:32:26.444Z,16.30
2023-05-04T18:36:28.985Z,16.20
2023-05-04T18:40:31.905Z,16.20
2023-05-04T18:44:33.974Z,16.10
2023-05-04T18:48:36.000Z,16.00
2023-05-04T18:52:38.039Z,15.90
2023-05-04T18:56:40.060Z,15.80
2023-05-04T19:00:46.219Z,15.70
2023-05-04T19:04:48.319Z,15.70
2023-05-04T19:08:50.381Z,15.50
2023-05-04T19:12:52.504Z,15.40
2023-05-04T19:16:54.569Z,15.30
2023-05-04T19:20:56.652Z,15.20
2023-05-04T19:24:58.480Z,15.10
2023-05-04T19:29:00.688Z,15.00
2023-05-04T19:33:03.574Z,14.80
2023-05-04T19:37:05.628Z,14.70
2023-05-04T19:41:07.678Z,14.70
2023-05-04T19:45:09.941Z,14.60
2023-05-04T19:49:12.034Z,14.50
2023-05-04T19:53:16.152Z,14.40
2023-05-04T19:57:18.320Z,14.30
2023-05-04T20:01:20.633Z,14.10
2023-05-04T20:05:22.610Z,14.00
2023-05-04T20:09:24.618Z,14.00
2023-05-04T20:13:26.461Z,13.90
2023-05-04T20:17:28.773Z,13.80
2023-05-04T20:21:31.151Z,13.80
2023-05-04T20:25:33.076Z,13.60
2023-05-04T20:29:35.326Z,13.40
2023-05-04T20:33:37.406Z,13.40
2023-05-04T20:37:39.437Z,13.40
2023-05-04T20:41:41.628Z,13.30
2023-05-04T20:45:43.849Z,13.10
2023-05-04T20:49:46.015Z,13.10
2023-05-04T20:53:48.116Z,12.90
2023-05-04T20:57:52.128Z,12.80
2023-05-04T21:01:54.249Z,12.70
2023-05-04T21:05:57.075Z,12.70
2023-05-04T21:09:59.204Z,12.50
2023-05-04T21:14:01.041Z,12.40
2023-05-04T21:18:03.045Z,12.30
2023-05-04T21:22:05.320Z,12.40
2023-05-04T21:26:07.157Z,12.40
2023-05-04T21:30:10.078Z,12.30
2023-05-04T21:34:12.395Z,12.10
2023-05-04T21:38:14.439Z,12.10
2023-05-04T21:42:16.573Z,12.00
2023-05-04T21:46:18.623Z,11.80
2023-05-04T21:50:20.576Z,11.70
2023-05-04T21:54:23.674Z,11.70
2023-05-04T21:58:25.822Z,11.80
2023-05-04T22:02:27.566Z,11.80
2023-05-04T22:06:29.524Z,11.70
2023-05-04T22:10:31.603Z,11.70
2023-05-04T22:14:33.761Z,11.60
2023-05-04T22:18:35.810Z,11.40
2023-05-04T22:22:37.739Z,11.20
2023-05-04T22:26:40.830Z,11.20
2023-05-04T22:30:43.033Z,11.20
2023-05-04T22:34:46.114Z,11.20
2023-05-04T22:38:50.339Z,11.30
2023-05-04T22:42:52.388Z,11.00
2023-05-04T22:46:54.559Z,11.00
2023-05-04T22:50:56.524Z,11.00
2023-05-04T22:54:58.939Z,10.90
2023-05-04T22:59:01.156Z,10.70
2023-05-04T23:03:03.638Z,10.70
2023-05-04T23:07:05.579Z,10.70
2023-05-04T23:11:07.511Z,10.80
2023-05-04T23:15:09.852Z,10.60
2023-05-04T23:19:12.066Z,10.60
2023-05-04T23:23:14.243Z,10.60
2023-05-04T23:27:16.117Z,10.60
2023-05-04T23:31:18.536Z,10.60
2023-05-04T23:35:20.768Z,10.50
2023-05-04T23:39:22.687Z,10.40
2023-05-04T23:43:24.725Z,10.40
2023-05-04T23:47:26.740Z,10.20
2023-05-04T23:51:28.791Z,10.40
2023-05-04T23:55:30.884Z,10.30
2023-05-04T23:59:33.934Z,10.20
